Time;durP1;ratioP1;P1;durP2;ratioP2;P2;SDS_P1;SDS_P2;PMS_P1;PMS_P2;Temp;Humidity;BMP_temperature;BMP_pressure;BME280_temperature;BME280_humidity;BME280_pressure;Samples;Min_cycle;Max_cycle;Signal;HPM_P1;HPM_P2
2023/04/24 00:01:00;;;;;;;1.47;1.07;;;;;;;;;;5059322;28;20519;-78
2023/04/24 00:03:27;;;;;;;1.77;1.13;;;;;;;;;;5043505;28;20521;-78
2023/04/24 00:05:54;;;;;;;1.35;1.25;;;;;;;;;;5076891;28;20571;-78
2023/04/24 00:08:21;;;;;;;1.60;0.90;;;;;;;;;;5059565;28;20181;-78
2023/04/24 00:10:47;;;;;;;1.55;1.10;;;;;;;;;;5059229;28;20184;-77
2023/04/24 00:13:13;;;;;;;1.47;1.17;;;;;;;;;;5042651;28;20188;-78
2023/04/24 00:15:39;;;;;;;1.20;1.00;;;;;;;;;;5077584;28;20400;-78
2023/04/24 00:18:05;;;;;;;1.45;1.00;;;;;;;;;;5059126;28;20180;-78
2023/04/24 00:20:35;;;;;;;1.23;1.00;;;;;;;;;;5043123;28;20616;-78
2023/04/24 00:23:01;;;;;;;2.55;1.13;;;;;;;;;;5059641;28;20626;-77
2023/04/24 00:25:27;;;;;;;1.00;0.90;;;;;;;;;;5043054;28;20177;-78
2023/04/24 00:27:53;;;;;;;4.60;1.15;;;;;;;;;;5041896;28;20798;-78
2023/04/24 00:30:19;;;;;;;1.10;1.00;;;;;;;;;;5077350;28;20169;-78
2023/04/24 00:32:45;;;;;;;1.83;1.10;;;;;;;;;;5058745;28;20173;-80
2023/04/24 00:35:11;;;;;;;1.58;1.10;;;;;;;;;;5042206;28;20550;-78
2023/04/24 00:37:37;;;;;;;1.33;1.23;;;;;;;;;;5076589;28;20168;-78
2023/04/24 00:40:03;;;;;;;1.50;1.20;;;;;;;;;;5058390;28;20176;-77
2023/04/24 00:42:29;;;;;;;2.90;1.20;;;;;;;;;;5058812;28;20200;-77
2023/04/24 00:44:57;;;;;;;1.30;1.20;;;;;;;;;;5058015;28;20192;-78
2023/04/24 00:47:23;;;;;;;2.65;1.20;;;;;;;;;;5058672;28;20414;-77
2023/04/24 00:49:49;;;;;;;1.42;1.10;;;;;;;;;;5058254;28;20228;-78
2023/04/24 00:52:17;;;;;;;1.77;1.17;;;;;;;;;;5058892;28;20215;-78
2023/04/24 00:54:43;;;;;;;2.42;1.40;;;;;;;;;;5042274;28;20184;-78
2023/04/24 00:57:10;;;;;;;1.58;1.33;;;;;;;;;;5076513;28;20184;-78
2023/04/24 00:59:36;;;;;;;2.45;1.55;;;;;;;;;;5042038;28;20264;-79
2023/04/24 01:02:03;;;;;;;1.20;1.10;;;;;;;;;;5057876;28;20664;-78
2023/04/24 01:04:29;;;;;;;2.88;1.23;;;;;;;;;;5076270;28;20169;-78
2023/04/24 01:06:55;;;;;;;1.48;1.38;;;;;;;;;;5057555;28;20197;-78
2023/04/24 01:09:23;;;;;;;3.95;1.55;;;;;;;;;;5058148;28;20525;-77
2023/04/24 01:11:50;;;;;;;1.95;1.50;;;;;;;;;;5057844;28;20185;-78
2023/04/24 01:14:16;;;;;;;1.83;1.70;;;;;;;;;;5058045;28;20188;-78
2023/04/24 01:16:42;;;;;;;3.03;2.73;;;;;;;;;;5075658;28;20173;-78
2023/04/24 01:19:08;;;;;;;4.28;2.50;;;;;;;;;;5057594;28;20822;-78
2023/04/24 01:21:37;;;;;;;5.43;2.95;;;;;;;;;;5057847;28;20676;-77
2023/04/24 01:24:03;;;;;;;3.53;3.15;;;;;;;;;;5056816;28;20204;-78
2023/04/24 01:26:29;;;;;;;3.35;3.05;;;;;;;;;;5041056;28;20181;-78
2023/04/24 01:28:56;;;;;;;4.18;3.08;;;;;;;;;;5057804;28;20200;-78
2023/04/24 01:31:22;;;;;;;7.38;3.90;;;;;;;;;;5041087;28;20271;-77
2023/04/24 01:33:48;;;;;;;12.77;4.07;;;;;;;;;;5075543;28;20552;-78
2023/04/24 01:36:14;;;;;;;6.03;3.42;;;;;;;;;;5057661;28;20195;-77
2023/04/24 01:38:40;;;;;;;7.10;4.47;;;;;;;;;;5056999;28;20632;-79
2023/04/24 01:41:06;;;;;;;7.95;4.20;;;;;;;;;;5057191;28;20212;-79
2023/04/24 01:43:32;;;;;;;5.25;4.45;;;;;;;;;;5057362;28;20578;-79
2023/04/24 01:45:59;;;;;;;4.57;4.07;;;;;;;;;;5057179;28;20180;-79
2023/04/24 01:48:25;;;;;;;10.85;4.13;;;;;;;;;;5041020;28;20223;-79
2023/04/24 01:50:51;;;;;;;4.63;4.18;;;;;;;;;;5040376;28;20292;-80
2023/04/24 01:53:17;;;;;;;8.13;4.70;;;;;;;;;;5056760;28;20180;-78
2023/04/24 01:55:43;;;;;;;6.90;4.45;;;;;;;;;;5057161;28;20177;-78
2023/04/24 01:58:09;;;;;;;4.05;3.60;;;;;;;;;;5056800;28;20632;-78
2023/04/24 02:00:35;;;;;;;10.18;6.13;;;;;;;;;;5057161;28;20177;-78
2023/04/24 02:03:01;;;;;;;9.30;5.40;;;;;;;;;;5040410;28;20227;-78
2023/04/24 02:05:27;;;;;;;8.75;5.75;;;;;;;;;;5074843;28;20192;-78
2023/04/24 02:07:53;;;;;;;7.40;6.28;;;;;;;;;;5040503;28;20189;-79
2023/04/24 02:10:19;;;;;;;7.25;6.55;;;;;;;;;;5040093;28;20619;-78
2023/04/24 02:12:46;;;;;;;7.57;6.07;;;;;;;;;;5057154;28;20617;-78
2023/04/24 02:15:12;;;;;;;7.47;6.43;;;;;;;;;;5040192;28;20279;-78
2023/04/24 02:17:38;;;;;;;9.50;5.68;;;;;;;;;;5056985;28;20650;-78
2023/04/24 02:20:05;;;;;;;9.95;6.03;;;;;;;;;;5075017;28;20208;-78
2023/04/24 02:22:31;;;;;;;8.38;4.93;;;;;;;;;;5040304;28;20346;-78
2023/04/24 02:24:57;;;;;;;9.25;5.20;;;;;;;;;;5074784;28;20234;-79
2023/04/24 02:27:23;;;;;;;10.93;5.93;;;;;;;;;;5057090;28;20187;-78
2023/04/24 02:29:50;;;;;;;8.25;5.32;;;;;;;;;;5057853;28;20173;-78
2023/04/24 02:32:16;;;;;;;9.10;5.38;;;;;;;;;;5057535;28;20181;-78
2023/04/24 02:34:42;;;;;;;7.95;5.75;;;;;;;;;;5056950;28;20659;-78
2023/04/24 02:37:08;;;;;;;10.13;5.70;;;;;;;;;;5074072;28;20247;-79
2023/04/24 02:39:34;;;;;;;11.18;5.95;;;;;;;;;;5057176;28;20209;-78
2023/04/24 02:42:01;;;;;;;8.40;6.27;;;;;;;;;;5056495;28;20676;-78
2023/04/24 02:44:27;;;;;;;8.25;6.53;;;;;;;;;;5041390;28;20458;-78
2023/04/24 02:46:53;;;;;;;8.45;7.10;;;;;;;;;;5057194;28;20543;-80
2023/04/24 02:49:19;;;;;;;8.60;5.25;;;;;;;;;;5040443;28;20184;-77
2023/04/24 02:51:45;;;;;;;8.68;7.10;;;;;;;;;;5041199;28;20295;-78
2023/04/24 02:54:11;;;;;;;6.70;6.07;;;;;;;;;;5040125;28;20228;-78
2023/04/24 02:56:37;;;;;;;11.25;7.07;;;;;;;;;;5057384;28;20502;-78
2023/04/24 02:59:03;;;;;;;12.38;6.82;;;;;;;;;;5040644;28;20177;-77
2023/04/24 03:01:30;;;;;;;7.90;6.22;;;;;;;;;;5056954;28;20265;-77
2023/04/24 03:03:56;;;;;;;7.85;6.05;;;;;;;;;;5074998;28;20169;-78
2023/04/24 03:06:22;;;;;;;9.40;7.00;;;;;;;;;;5056625;28;20199;-77
2023/04/24 03:08:48;;;;;;;10.07;7.43;;;;;;;;;;5040413;28;20410;-77
2023/04/24 03:11:14;;;;;;;12.57;6.53;;;;;;;;;;5075140;28;20602;-77
2023/04/24 03:13:40;;;;;;;8.70;7.10;;;;;;;;;;5075357;28;20176;-77
2023/04/24 03:16:06;;;;;;;9.37;6.23;;;;;;;;;;5039965;28;20411;-78
2023/04/24 03:18:32;;;;;;;7.93;6.70;;;;;;;;;;5056874;28;20905;-77
2023/04/24 03:20:59;;;;;;;9.15;6.80;;;;;;;;;;5056478;28;20458;-79
2023/04/24 03:23:25;;;;;;;7.53;5.63;;;;;;;;;;5074748;28;20530;-78
2023/04/24 03:25:51;;;;;;;9.10;7.18;;;;;;;;;;5056789;28;20190;-79
2023/04/24 03:28:17;;;;;;;8.55;6.45;;;;;;;;;;5056324;28;20318;-79
2023/04/24 03:30:43;;;;;;;8.93;6.72;;;;;;;;;;5056939;28;20208;-79
2023/04/24 03:33:09;;;;;;;9.10;7.72;;;;;;;;;;5056370;28;20247;-79
2023/04/24 03:35:36;;;;;;;9.65;7.60;;;;;;;;;;5039735;28;20645;-79
2023/04/24 03:38:04;;;;;;;10.43;7.00;;;;;;;;;;5039731;28;20212;-77
2023/04/24 03:40:30;;;;;;;7.43;6.07;;;;;;;;;;5074050;28;20165;-80
2023/04/24 03:42:56;;;;;;;7.63;6.25;;;;;;;;;;5039842;28;20551;-80
2023/04/24 03:45:22;;;;;;;12.13;6.13;;;;;;;;;;5055983;28;20267;-80
2023/04/24 03:47:48;;;;;;;7.88;6.70;;;;;;;;;;5057295;28;20535;-77
2023/04/24 03:50:14;;;;;;;7.95;5.75;;;;;;;;;;5042729;28;20235;-79
2023/04/24 03:52:40;;;;;;;7.65;6.07;;;;;;;;;;5060246;28;20367;-79
2023/04/24 03:55:07;;;;;;;7.63;6.63;;;;;;;;;;5078430;28;20177;-80
2023/04/24 03:57:33;;;;;;;7.80;6.15;;;;;;;;;;5043949;28;20196;-79
2023/04/24 03:59:59;;;;;;;8.65;6.65;;;;;;;;;;5060156;28;20625;-79
2023/04/24 04:02:25;;;;;;;7.75;6.07;;;;;;;;;;5043671;28;20374;-79
2023/04/24 04:04:51;;;;;;;10.40;6.20;;;;;;;;;;5060770;28;20177;-79
2023/04/24 04:07:17;;;;;;;10.10;7.15;;;;;;;;;;5059554;28;20691;-76
2023/04/24 04:09:43;;;;;;;8.25;6.13;;;;;;;;;;5043215;28;20180;-79
2023/04/24 04:12:09;;;;;;;7.68;6.90;;;;;;;;;;5059898;28;20223;-79
2023/04/24 04:14:35;;;;;;;7.55;5.38;;;;;;;;;;5059399;28;20188;-79
2023/04/24 04:17:01;;;;;;;9.57;5.97;;;;;;;;;;5059290;28;20225;-79
2023/04/24 04:19:27;;;;;;;11.40;6.57;;;;;;;;;;5059069;28;20180;-79
2023/04/24 04:21:55;;;;;;;13.05;7.25;;;;;;;;;;5042738;28;20289;-78
2023/04/24 04:24:22;;;;;;;8.57;5.50;;;;;;;;;;5043470;28;20554;-78
2023/04/24 04:26:50;;;;;;;7.05;6.35;;;;;;;;;;5059695;28;20177;-78
2023/04/24 04:29:16;;;;;;;7.03;5.60;;;;;;;;;;5058955;28;20183;-79
2023/04/24 04:31:42;;;;;;;6.68;5.53;;;;;;;;;;5042610;28;20276;-79
2023/04/24 04:34:08;;;;;;;7.65;5.22;;;;;;;;;;5059149;28;20184;-79
2023/04/24 04:36:36;;;;;;;7.70;5.25;;;;;;;;;;5042927;28;20188;-79
2023/04/24 04:39:03;;;;;;;5.10;3.92;;;;;;;;;;5059839;28;20264;-80
2023/04/24 04:41:31;;;;;;;6.53;4.32;;;;;;;;;;5059557;28;20197;-79
2023/04/24 04:43:58;;;;;;;5.65;5.05;;;;;;;;;;5059736;28;20185;-78
2023/04/24 04:46:25;;;;;;;5.75;4.18;;;;;;;;;;5076866;28;20169;-79
2023/04/24 04:48:52;;;;;;;5.40;4.40;;;;;;;;;;5043341;28;20633;-78
2023/04/24 04:51:18;;;;;;;7.22;5.68;;;;;;;;;;5058941;28;20221;-79
2023/04/24 04:53:44;;;;;;;6.43;4.15;;;;;;;;;;5042437;28;20226;-79
2023/04/24 04:56:10;;;;;;;5.72;5.10;;;;;;;;;;5058656;28;20181;-79
2023/04/24 04:58:36;;;;;;;16.90;5.80;;;;;;;;;;5059599;28;20638;-79
2023/04/24 05:01:02;;;;;;;7.72;5.00;;;;;;;;;;5065510;28;20235;-79
2023/04/24 05:03:28;;;;;;;6.13;5.53;;;;;;;;;;5062304;28;20198;-79
2023/04/24 05:05:54;;;;;;;6.85;5.80;;;;;;;;;;5061881;28;20649;-79
2023/04/24 05:08:20;;;;;;;5.97;5.38;;;;;;;;;;5078518;28;20168;-79
2023/04/24 05:10:46;;;;;;;5.43;3.90;;;;;;;;;;5061825;28;20234;-79
2023/04/24 05:13:12;;;;;;;6.68;5.60;;;;;;;;;;5096267;28;20172;-79
2023/04/24 05:15:38;;;;;;;8.00;4.63;;;;;;;;;;5076759;28;20528;-76
2023/04/24 05:18:05;;;;;;;6.47;5.18;;;;;;;;;;5078057;28;20191;-77
2023/04/24 05:20:31;;;;;;;11.23;5.88;;;;;;;;;;5080475;28;20191;-84
2023/04/24 05:22:57;;;;;;;6.75;5.22;;;;;;;;;;5075975;28;20185;-84
2023/04/24 05:25:23;;;;;;;9.82;4.50;;;;;;;;;;5057584;28;20173;-84
2023/04/24 05:27:49;;;;;;;7.70;6.18;;;;;;;;;;5075616;28;20264;-84
2023/04/24 05:30:15;;;;;;;10.52;4.43;;;;;;;;;;5041229;28;20184;-84
2023/04/24 05:32:41;;;;;;;6.65;4.68;;;;;;;;;;5059725;28;20187;-84
2023/04/24 05:35:07;;;;;;;14.77;6.57;;;;;;;;;;5076811;28;20177;-85
2023/04/24 05:37:33;;;;;;;8.68;5.60;;;;;;;;;;5065669;28;20184;-85
2023/04/24 05:39:59;;;;;;;5.90;5.00;;;;;;;;;;5062082;28;20185;-84
2023/04/24 05:42:25;;;;;;;6.15;4.65;;;;;;;;;;5060450;28;20734;-85
2023/04/24 05:44:53;;;;;;;6.65;4.57;;;;;;;;;;5061025;28;20547;-85
2023/04/24 05:47:21;;;;;;;6.05;4.50;;;;;;;;;;5060603;28;20179;-82
2023/04/24 05:49:47;;;;;;;5.75;3.97;;;;;;;;;;5060384;28;20258;-82
2023/04/24 05:52:13;;;;;;;6.45;4.35;;;;;;;;;;5063439;28;20195;-83
2023/04/24 05:54:39;;;;;;;8.38;4.05;;;;;;;;;;5060787;28;20180;-81
2023/04/24 05:57:07;;;;;;;4.45;3.15;;;;;;;;;;5060374;28;20210;-82
2023/04/24 05:59:42;;;;;;;3.67;2.60;;;;;;;;;;5061054;28;20620;-81
2023/04/24 06:02:08;;;;;;;4.50;3.72;;;;;;;;;;5076570;28;20313;-82
2023/04/24 06:04:35;;;;;;;4.63;2.72;;;;;;;;;;5076962;28;20194;-82
2023/04/24 06:07:01;;;;;;;4.38;3.20;;;;;;;;;;5060349;28;20279;-83
2023/04/24 06:09:27;;;;;;;3.47;3.15;;;;;;;;;;5076691;28;20184;-83
2023/04/24 06:11:53;;;;;;;3.00;2.75;;;;;;;;;;5060210;28;20196;-82
2023/04/24 06:14:20;;;;;;;2.42;2.20;;;;;;;;;;5060031;28;20584;-84
2023/04/24 06:16:46;;;;;;;5.72;2.30;;;;;;;;;;5076836;28;20184;-83
2023/04/24 06:19:12;;;;;;;3.40;2.45;;;;;;;;;;5076224;28;20523;-83
2023/04/24 06:21:38;;;;;;;3.53;1.90;;;;;;;;;;5076674;28;20246;-84
2023/04/24 06:24:04;;;;;;;3.35;2.10;;;;;;;;;;5076885;28;20184;-83
2023/04/24 06:26:30;;;;;;;2.78;2.00;;;;;;;;;;5082973;28;20192;-83
2023/04/24 06:28:58;;;;;;;2.40;2.15;;;;;;;;;;5060755;28;20263;-84
2023/04/24 06:31:24;;;;;;;2.67;1.52;;;;;;;;;;5060858;28;20652;-82
2023/04/24 06:33:50;;;;;;;2.97;2.47;;;;;;;;;;5077476;28;20219;-83
2023/04/24 06:36:16;;;;;;;3.75;1.98;;;;;;;;;;5076646;28;20184;-83
2023/04/24 06:38:42;;;;;;;3.45;2.38;;;;;;;;;;5073347;28;20535;-84
2023/04/24 06:41:08;;;;;;;2.65;2.45;;;;;;;;;;5073501;28;20258;-87
2023/04/24 06:43:34;;;;;;;2.70;2.47;;;;;;;;;;5047843;28;20238;-85
2023/04/24 06:46:00;;;;;;;2.75;2.55;;;;;;;;;;5043095;28;20192;-86
2023/04/24 06:48:26;;;;;;;3.80;2.72;;;;;;;;;;5056637;28;20179;-85
2023/04/24 06:50:53;;;;;;;3.45;3.15;;;;;;;;;;5056413;28;20224;-85
2023/04/24 06:53:19;;;;;;;4.38;3.42;;;;;;;;;;5040067;28;20208;-86
2023/04/24 06:55:45;;;;;;;3.63;3.33;;;;;;;;;;5074780;28;20161;-85
2023/04/24 06:58:12;;;;;;;5.78;3.20;;;;;;;;;;5040695;28;20177;-85
2023/04/24 07:00:38;;;;;;;5.25;4.13;;;;;;;;;;5057623;28;20665;-85
2023/04/24 07:03:07;;;;;;;4.80;3.05;;;;;;;;;;5056588;28;20196;-85
2023/04/24 07:05:35;;;;;;;5.22;3.75;;;;;;;;;;5055967;28;20203;-86
2023/04/24 07:08:01;;;;;;;4.22;3.83;;;;;;;;;;5056772;28;20204;-88
2023/04/24 07:10:28;;;;;;;2.80;2.10;;;;;;;;;;5077370;28;20184;-89
2023/04/24 07:12:55;;;;;;;5.07;3.80;;;;;;;;;;5057955;28;20171;-89
2023/04/24 07:15:21;;;;;;;6.53;3.85;;;;;;;;;;5058916;28;20264;-90
2023/04/24 07:17:47;;;;;;;3.67;2.78;;;;;;;;;;5059835;28;20263;-90
2023/04/24 07:20:14;;;;;;;3.45;2.70;;;;;;;;;;5078179;28;20200;-89
2023/04/24 07:22:40;;;;;;;2.85;1.98;;;;;;;;;;5077045;28;20211;-90
2023/04/24 07:25:07;;;;;;;2.35;2.15;;;;;;;;;;5062476;28;20607;-90
2023/04/24 07:27:33;;;;;;;4.95;3.38;;;;;;;;;;5080105;28;20206;-91
2023/04/24 07:29:59;;;;;;;2.45;2.03;;;;;;;;;;5079365;28;20180;-90
2023/04/24 07:32:25;;;;;;;2.00;1.73;;;;;;;;;;5061053;28;20203;-91
2023/04/24 07:34:51;;;;;;;2.33;1.45;;;;;;;;;;5062072;28;20267;-93
2023/04/24 07:37:17;;;;;;;7.63;2.20;;;;;;;;;;5063211;28;20169;-90
2023/04/24 07:39:43;;;;;;;3.05;2.00;;;;;;;;;;5081472;28;20176;-90
2023/04/24 07:42:09;;;;;;;3.35;1.90;;;;;;;;;;5080901;28;20200;-90
2023/04/24 07:44:35;;;;;;;3.03;1.80;;;;;;;;;;5062681;28;20191;-91
2023/04/24 07:47:02;;;;;;;2.03;1.75;;;;;;;;;;5045455;28;20634;-89
2023/04/24 07:49:28;;;;;;;2.45;1.48;;;;;;;;;;5063034;28;20229;-92
2023/04/24 07:51:54;;;;;;;2.08;1.88;;;;;;;;;;5062973;28;20177;-88
2023/04/24 07:54:20;;;;;;;2.50;2.08;;;;;;;;;;5062107;28;20599;-90
2023/04/24 07:56:46;;;;;;;3.08;2.78;;;;;;;;;;5080503;28;20522;-91
2023/04/24 07:59:13;;;;;;;4.82;2.90;;;;;;;;;;5079104;28;20172;-91
2023/04/24 08:01:39;;;;;;;4.18;2.22;;;;;;;;;;5084031;28;20227;-93
2023/04/24 08:04:05;;;;;;;1.67;1.58;;;;;;;;;;5064894;28;20181;-92
2023/04/24 08:06:31;;;;;;;3.78;1.75;;;;;;;;;;5045211;28;20180;-92
2023/04/24 08:08:57;;;;;;;2.35;1.85;;;;;;;;;;5081127;28;20169;-91
2023/04/24 08:11:24;;;;;;;5.43;2.88;;;;;;;;;;5048263;28;20586;-90
2023/04/24 08:13:50;;;;;;;2.17;1.98;;;;;;;;;;5063802;28;20301;-91
2023/04/24 08:16:16;;;;;;;2.30;1.48;;;;;;;;;;5081195;28;20519;-94
2023/04/24 08:18:42;;;;;;;1.70;1.35;;;;;;;;;;5047194;28;20185;-93
2023/04/24 08:21:08;;;;;;;2.73;1.37;;;;;;;;;;5063903;28;20204;-91
2023/04/24 08:23:34;;;;;;;3.58;1.60;;;;;;;;;;5064836;28;20469;-92
2023/04/24 08:26:00;;;;;;;3.45;1.38;;;;;;;;;;5062845;28;20184;-89
2023/04/24 08:28:26;;;;;;;3.40;2.30;;;;;;;;;;5061469;28;20644;-92
2023/04/24 08:30:54;;;;;;;2.07;1.83;;;;;;;;;;5061274;28;20406;-91
2023/04/24 08:33:20;;;;;;;3.45;2.17;;;;;;;;;;5077473;28;20449;-92
2023/04/24 08:35:46;;;;;;;2.95;2.70;;;;;;;;;;5060383;28;20185;-93
2023/04/24 08:38:12;;;;;;;4.35;2.60;;;;;;;;;;5079312;28;20675;-89
2023/04/24 08:40:39;;;;;;;5.43;3.80;;;;;;;;;;5043449;28;20234;-90
2023/04/24 08:43:05;;;;;;;3.25;2.95;;;;;;;;;;5043278;28;20419;-90
2023/04/24 08:45:33;;;;;;;5.35;3.55;;;;;;;;;;5078867;28;20224;-89
2023/04/24 08:47:59;;;;;;;6.28;3.63;;;;;;;;;;5078322;28;20634;-89
2023/04/24 08:50:25;;;;;;;6.10;3.90;;;;;;;;;;5043326;28;20580;-88
2023/04/24 08:52:53;;;;;;;6.00;4.43;;;;;;;;;;5061708;28;20274;-90
2023/04/24 08:55:20;;;;;;;4.38;3.70;;;;;;;;;;5079330;28;20182;-89
2023/04/24 08:57:49;;;;;;;7.95;5.60;;;;;;;;;;5061837;28;20575;-89
2023/04/24 09:00:15;;;;;;;9.18;5.72;;;;;;;;;;5060490;28;20210;-86
2023/04/24 09:02:45;;;;;;;9.88;4.50;;;;;;;;;;5060592;28;20232;-92
2023/04/24 09:05:13;;;;;;;6.90;5.80;;;;;;;;;;5061913;28;20195;-91
2023/04/24 09:07:39;;;;;;;8.77;5.95;;;;;;;;;;5078308;28;20165;-91
2023/04/24 09:10:07;;;;;;;8.10;5.05;;;;;;;;;;5061833;28;20199;-92
2023/04/24 09:12:34;;;;;;;10.18;5.93;;;;;;;;;;5062395;28;20648;-92
2023/04/24 09:15:00;;;;;;;8.57;4.97;;;;;;;;;;5062719;28;20177;-92
2023/04/24 09:17:28;;;;;;;6.60;4.43;;;;;;;;;;5063561;28;20176;-90
2023/04/24 09:19:54;;;;;;;13.27;8.35;;;;;;;;;;5067671;28;20188;-91
2023/04/24 09:22:20;;;;;;;8.50;6.13;;;;;;;;;;5067559;28;20224;-91
2023/04/24 09:24:46;;;;;;;9.40;7.25;;;;;;;;;;5086227;28;20176;-91
2023/04/24 09:27:13;;;;;;;16.58;8.15;;;;;;;;;;5063147;28;20184;-90
2023/04/24 09:29:38;;;;;;;12.10;8.00;;;;;;;;;;5044733;28;20223;-91
2023/04/24 09:32:21;;;;;;;12.68;8.80;;;;;;;;;;5048026;28;20177;-90
2023/04/24 09:34:48;;;;;;;15.00;8.55;;;;;;;;;;5065964;28;20286;-90
2023/04/24 09:37:30;;;;;;;10.57;8.07;;;;;;;;;;5069854;28;20177;-86
2023/04/24 09:40:08;;;;;;;15.00;9.25;;;;;;;;;;5060077;28;20173;-87
2023/04/24 09:42:34;;;;;;;19.38;10.18;;;;;;;;;;5062259;28;20208;-87
2023/04/24 09:45:00;;;;;;;9.70;7.82;;;;;;;;;;5060322;28;20188;-85
2023/04/24 09:47:26;;;;;;;15.03;8.90;;;;;;;;;;5042647;28;20633;-88
2023/04/24 09:49:58;;;;;;;10.33;6.73;;;;;;;;;;5042089;28;20470;-85
2023/04/24 09:52:25;;;;;;;11.15;7.45;;;;;;;;;;5078084;28;20435;-85
2023/04/24 09:54:54;;;;;;;10.82;6.40;;;;;;;;;;5046898;28;20700;-87
2023/04/24 09:57:20;;;;;;;4.75;4.15;;;;;;;;;;5061764;28;20307;-85
2023/04/24 09:59:46;;;;;;;9.57;6.53;;;;;;;;;;5076765;28;20172;-86
2023/04/24 10:02:18;;;;;;;13.23;6.85;;;;;;;;;;5060580;28;20221;-85
2023/04/24 10:04:55;;;;;;;9.15;6.63;;;;;;;;;;5058851;28;20173;-85
2023/04/24 10:07:21;;;;;;;12.88;6.95;;;;;;;;;;5059342;28;20176;-84
2023/04/24 10:09:47;;;;;;;10.02;6.28;;;;;;;;;;5077975;28;20599;-85
2023/04/24 10:12:13;;;;;;;8.60;4.87;;;;;;;;;;5060655;28;20181;-85
2023/04/24 10:14:39;;;;;;;7.15;4.55;;;;;;;;;;5061380;28;20457;-86
2023/04/24 10:17:06;;;;;;;8.57;6.43;;;;;;;;;;5060172;28;20203;-86
2023/04/24 10:19:33;;;;;;;9.23;5.60;;;;;;;;;;5076844;28;20180;-87
2023/04/24 10:21:59;;;;;;;7.22;4.88;;;;;;;;;;5076419;28;20208;-87
2023/04/24 10:24:25;;;;;;;11.15;6.70;;;;;;;;;;5076522;28;20180;-89
2023/04/24 10:26:52;;;;;;;7.32;5.47;;;;;;;;;;5058195;28;20173;-87
2023/04/24 10:29:18;;;;;;;5.53;3.88;;;;;;;;;;5058431;28;20183;-82
2023/04/24 10:31:47;;;;;;;15.32;6.40;;;;;;;;;;5075500;28;20177;-81
2023/04/24 10:34:14;;;;;;;10.98;6.50;;;;;;;;;;5057534;28;20629;-81
2023/04/24 10:36:42;;;;;;;9.30;7.03;;;;;;;;;;5049103;28;20185;-91
2023/04/24 10:39:10;;;;;;;10.82;6.03;;;;;;;;;;5079722;28;20609;-91
2023/04/24 10:41:37;;;;;;;13.88;6.75;;;;;;;;;;5098136;28;20203;-91
2023/04/24 10:44:11;;;;;;;16.92;6.88;;;;;;;;;;5097618;28;20210;-90
2023/04/24 10:46:37;;;;;;;8.48;6.07;;;;;;;;;;5080268;28;20172;-91
2023/04/24 10:49:08;;;;;;;9.32;5.00;;;;;;;;;;5097734;28;20169;-88
2023/04/24 10:51:53;;;;;;;10.80;6.13;;;;;;;;;;5080419;28;20171;-89
2023/04/24 10:54:42;;;;;;;7.95;5.95;;;;;;;;;;5079818;28;20176;-89
2023/04/24 10:57:21;;;;;;;11.27;5.90;;;;;;;;;;5078178;28;20168;-89
2023/04/24 10:59:48;;;;;;;11.30;6.65;;;;;;;;;;5088852;28;20259;-93
2023/04/24 11:02:17;;;;;;;12.38;6.68;;;;;;;;;;5103036;28;20223;-92
2023/04/24 11:04:43;;;;;;;9.63;5.85;;;;;;;;;;5079817;28;20176;-92
2023/04/24 11:07:10;;;;;;;16.70;7.80;;;;;;;;;;5099889;28;20164;-93
2023/04/24 11:09:36;;;;;;;12.18;6.57;;;;;;;;;;5065087;28;20219;-93
2023/04/24 11:12:10;;;;;;;15.02;6.88;;;;;;;;;;5084094;28;20176;-91
2023/04/24 11:14:55;;;;;;;10.45;7.28;;;;;;;;;;5097636;28;20188;-91
2023/04/24 11:17:34;;;;;;;17.67;8.20;;;;;;;;;;5078280;28;20191;-91
2023/04/24 11:20:18;;;;;;;12.43;7.43;;;;;;;;;;5078955;28;20172;-89
2023/04/24 11:22:44;;;;;;;7.90;6.55;;;;;;;;;;5078082;28;20247;-90
2023/04/24 11:25:11;;;;;;;11.18;6.57;;;;;;;;;;5096894;28;20271;-91
2023/04/24 11:27:40;;;;;;;14.82;7.07;;;;;;;;;;5077052;28;20204;-91
2023/04/24 11:30:07;;;;;;;13.40;7.10;;;;;;;;;;5096070;28;20164;-91
2023/04/24 11:32:33;;;;;;;9.27;5.50;;;;;;;;;;5096210;28;20187;-90
2023/04/24 11:35:01;;;;;;;12.13;7.57;;;;;;;;;;5079990;28;20518;-91
2023/04/24 11:37:28;;;;;;;8.68;6.45;;;;;;;;;;5096291;28;20405;-89
2023/04/24 11:39:55;;;;;;;10.07;7.00;;;;;;;;;;5094977;28;20203;-90
2023/04/24 11:42:22;;;;;;;14.93;5.95;;;;;;;;;;5095217;28;20235;-89
2023/04/24 11:44:49;;;;;;;8.88;6.07;;;;;;;;;;5076980;28;20195;-86
2023/04/24 11:47:15;;;;;;;9.32;6.32;;;;;;;;;;5055274;28;20180;-85
2023/04/24 11:49:41;;;;;;;5.28;4.75;;;;;;;;;;5056469;28;20254;-84
2023/04/24 11:52:07;;;;;;;8.02;5.30;;;;;;;;;;5056871;28;20176;-85
2023/04/24 11:54:33;;;;;;;20.03;6.40;;;;;;;;;;5058830;28;20667;-85
2023/04/24 11:56:59;;;;;;;8.73;5.07;;;;;;;;;;5058634;28;20891;-82
2023/04/24 11:59:25;;;;;;;6.68;5.30;;;;;;;;;;5057898;28;20192;-82
2023/04/24 12:01:51;;;;;;;11.43;4.90;;;;;;;;;;5040390;28;20217;-85
2023/04/24 12:04:19;;;;;;;8.70;4.43;;;;;;;;;;5056468;28;20415;-84
2023/04/24 12:07:04;;;;;;;11.85;4.72;;;;;;;;;;5056360;28;20907;-83
2023/04/24 12:09:41;;;;;;;10.38;4.07;;;;;;;;;;5077162;28;20172;-82
2023/04/24 12:12:07;;;;;;;7.78;4.68;;;;;;;;;;5078650;28;20157;-83
2023/04/24 12:14:33;;;;;;;7.82;4.90;;;;;;;;;;5078477;28;20260;-81
2023/04/24 12:16:59;;;;;;;6.55;3.63;;;;;;;;;;5077863;28;20184;-82
2023/04/24 12:19:25;;;;;;;11.65;4.97;;;;;;;;;;5077960;28;20169;-83
2023/04/24 12:22:01;;;;;;;6.03;3.83;;;;;;;;;;5077366;28;20196;-84
2023/04/24 12:24:27;;;;;;;13.48;3.95;;;;;;;;;;5059809;28;20177;-82
2023/04/24 12:26:54;;;;;;;6.88;4.10;;;;;;;;;;5059680;28;20173;-83
2023/04/24 12:29:21;;;;;;;9.40;3.42;;;;;;;;;;5043111;28;20212;-83
2023/04/24 12:31:47;;;;;;;5.25;2.42;;;;;;;;;;5077122;28;20523;-82
2023/04/24 12:34:23;;;;;;;6.43;3.20;;;;;;;;;;5059337;28;20242;-84
2023/04/24 12:36:49;;;;;;;7.45;5.00;;;;;;;;;;5059257;28;20437;-83
2023/04/24 12:39:19;;;;;;;5.57;2.80;;;;;;;;;;5059445;28;20648;-82
2023/04/24 12:42:11;;;;;;;13.67;3.37;;;;;;;;;;5077052;28;20649;-84
2023/04/24 12:44:37;;;;;;;9.97;4.33;;;;;;;;;;5055025;28;20438;-83
2023/04/24 12:47:03;;;;;;;11.43;5.10;;;;;;;;;;5058651;28;20510;-83
2023/04/24 12:49:31;;;;;;;9.40;4.40;;;;;;;;;;5076492;28;20790;-83
2023/04/24 12:51:57;;;;;;;6.57;4.78;;;;;;;;;;5076822;28;20408;-83
2023/04/24 12:54:23;;;;;;;9.30;4.80;;;;;;;;;;5076663;28;20176;-83
2023/04/24 12:56:49;;;;;;;8.60;4.87;;;;;;;;;;5058444;28;20419;-84
2023/04/24 12:59:15;;;;;;;9.13;3.90;;;;;;;;;;5041989;28;20437;-84
2023/04/24 13:01:42;;;;;;;8.43;4.10;;;;;;;;;;5076585;28;20479;-83
2023/04/24 13:04:08;;;;;;;7.63;4.57;;;;;;;;;;5076311;28;20408;-86
2023/04/24 13:06:34;;;;;;;8.70;4.93;;;;;;;;;;5058119;28;20423;-83
2023/04/24 13:09:00;;;;;;;10.33;4.70;;;;;;;;;;5058061;28;20415;-83
2023/04/24 13:11:26;;;;;;;7.50;4.88;;;;;;;;;;5076682;28;20426;-84
2023/04/24 13:13:52;;;;;;;9.83;5.03;;;;;;;;;;5042034;28;20185;-83
2023/04/24 13:16:18;;;;;;;11.10;5.50;;;;;;;;;;5058351;28;20779;-85
2023/04/24 13:18:44;;;;;;;8.77;4.87;;;;;;;;;;5057947;28;20277;-83
2023/04/24 13:21:10;;;;;;;8.80;5.33;;;;;;;;;;5074546;28;20461;-83
2023/04/24 13:23:37;;;;;;;9.33;4.90;;;;;;;;;;5057953;28;20411;-82
2023/04/24 13:26:03;;;;;;;9.63;5.50;;;;;;;;;;5058293;28;20871;-83
2023/04/24 13:28:30;;;;;;;7.10;4.57;;;;;;;;;;5076529;28;20810;-83
2023/04/24 13:30:56;;;;;;;6.83;4.70;;;;;;;;;;5076003;28;20934;-83
2023/04/24 13:33:22;;;;;;;8.40;4.80;;;;;;;;;;5076258;28;20411;-82
2023/04/24 13:35:48;;;;;;;7.43;3.77;;;;;;;;;;5075506;28;20411;-83
2023/04/24 13:38:16;;;;;;;5.83;4.70;;;;;;;;;;5057667;28;20775;-82
2023/04/24 13:40:42;;;;;;;7.03;4.90;;;;;;;;;;5075295;28;20411;-82
2023/04/24 13:43:09;;;;;;;6.23;4.23;;;;;;;;;;5058054;28;20586;-84
2023/04/24 13:45:35;;;;;;;7.07;4.20;;;;;;;;;;5059711;28;20416;-83
2023/04/24 13:48:02;;;;;;;7.50;4.53;;;;;;;;;;5076096;28;20494;-85
2023/04/24 13:50:28;;;;;;;6.17;5.27;;;;;;;;;;5042472;28;20819;-83
2023/04/24 13:52:56;;;;;;;6.73;5.03;;;;;;;;;;5060435;28;20442;-85
2023/04/24 13:55:22;;;;;;;9.60;5.30;;;;;;;;;;5078368;28;20545;-84
2023/04/24 13:57:48;;;;;;;6.90;4.63;;;;;;;;;;5064730;28;20576;-85
2023/04/24 14:00:14;;;;;;;4.47;3.60;;;;;;;;;;5079347;28;20429;-84
2023/04/24 14:02:41;;;;;;;7.83;4.50;;;;;;;;;;5058892;28;20478;-84
2023/04/24 14:05:07;;;;;;;8.10;3.90;;;;;;;;;;5076766;28;20406;-86
2023/04/24 14:07:33;;;;;;;6.00;3.60;;;;;;;;;;5041014;28;20407;-85
2023/04/24 14:09:59;;;;;;;9.17;4.03;;;;;;;;;;5040830;28;20908;-85
2023/04/24 14:12:25;;;;;;;5.93;3.60;;;;;;;;;;5066322;28;20414;-85
2023/04/24 14:14:51;;;;;;;6.60;3.97;;;;;;;;;;5088672;28;20400;-85
2023/04/24 14:17:17;;;;;;;10.00;3.67;;;;;;;;;;5067885;28;20488;-84
2023/04/24 14:19:43;;;;;;;8.90;4.00;;;;;;;;;;5063819;28;20438;-84
2023/04/24 14:22:10;;;;;;;4.40;3.97;;;;;;;;;;5075677;28;20997;-85
2023/04/24 14:24:36;;;;;;;5.90;3.60;;;;;;;;;;5075196;28;20444;-84
2023/04/24 14:27:02;;;;;;;7.93;4.30;;;;;;;;;;5049126;28;20412;-84
2023/04/24 14:29:29;;;;;;;5.97;3.80;;;;;;;;;;5065407;28;20407;-85
2023/04/24 14:31:55;;;;;;;7.90;4.40;;;;;;;;;;5045376;28;20922;-85
2023/04/24 14:34:21;;;;;;;7.60;4.00;;;;;;;;;;5076355;28;20399;-84
2023/04/24 14:36:47;;;;;;;7.07;4.43;;;;;;;;;;5074584;28;20853;-84
2023/04/24 14:39:13;;;;;;;8.00;3.60;;;;;;;;;;5074638;28;20411;-85